createdAt,value
2019-01-12T00:00:05.256Z,978.02
2019-01-12T00:01:05.335Z,977.88
2019-01-12T00:02:05.432Z,978.04
2019-01-12T00:03:05.498Z,977.82
2019-01-12T00:04:04.650Z,977.99
2019-01-12T00:05:05.146Z,977.93
2019-01-12T00:06:04.636Z,977.90
2019-01-12T00:07:04.665Z,977.85
2019-01-12T00:08:04.970Z,977.85
2019-01-12T00:09:04.917Z,977.77
2019-01-12T00:10:05.287Z,977.77
2019-01-12T00:11:04.644Z,977.88
2019-01-12T00:12:05.318Z,977.90
2019-01-12T00:13:05.385Z,977.79
2019-01-12T00:14:04.879Z,977.79
2019-01-12T00:15:05.502Z,977.90
2019-01-12T00:16:05.071Z,977.96
2019-01-12T00:17:05.448Z,978.02
2019-01-12T00:18:05.132Z,977.93
2019-01-12T00:19:05.298Z,977.99
2019-01-12T00:20:04.687Z,978.07
2019-01-12T00:21:04.941Z,977.88
2019-01-12T00:22:04.589Z,977.96
2019-01-12T00:23:04.719Z,977.96
2019-01-12T00:24:04.832Z,977.85
2019-01-12T00:25:04.603Z,977.99
2019-01-12T00:26:04.867Z,978.01
2019-01-12T00:27:04.993Z,977.93
2019-01-12T00:28:05.465Z,977.87
2019-01-12T00:29:09.998Z,977.90
2019-01-12T00:30:05.486Z,977.96
2019-01-12T00:31:04.903Z,977.96
2019-01-12T00:32:05.570Z,977.93
2019-01-12T00:33:04.604Z,978.04
2019-01-12T00:34:04.997Z,977.98
2019-01-12T00:35:04.669Z,977.87
2019-01-12T00:36:04.824Z,977.93
2019-01-12T00:37:04.965Z,977.87
2019-01-12T00:38:05.244Z,977.98
2019-01-12T00:39:04.553Z,978.01
2019-01-12T00:40:04.586Z,977.90
2019-01-12T00:41:05.021Z,978.01
2019-01-12T00:42:05.574Z,977.96
2019-01-12T00:43:04.567Z,978.04
2019-01-12T00:44:04.662Z,978.04
2019-01-12T00:45:05.237Z,978.04
2019-01-12T00:46:05.507Z,978.07
2019-01-12T00:47:05.527Z,977.98
2019-01-12T00:48:04.783Z,977.95
2019-01-12T00:49:04.831Z,977.96
2019-01-12T00:50:05.367Z,977.98
2019-01-12T00:51:04.617Z,977.95
2019-01-12T00:52:05.278Z,978.07
2019-01-12T00:53:05.480Z,977.84
2019-01-12T00:54:04.516Z,977.90
2019-01-12T00:55:04.657Z,977.95
2019-01-12T00:56:04.751Z,977.87
2019-01-12T00:57:04.843Z,977.98
2019-01-12T00:58:05.226Z,977.93
2019-01-12T00:59:05.380Z,978.07
2019-01-12T01:00:04.514Z,978.09
2019-01-12T01:01:05.053Z,978.15
2019-01-12T01:02:05.147Z,977.95
2019-01-12T01:03:05.314Z,978.18
2019-01-12T01:04:05.452Z,978.29
2019-01-12T01:05:04.750Z,978.29
2019-01-12T01:06:04.970Z,978.23
2019-01-12T01:07:04.999Z,978.18
2019-01-12T01:08:05.123Z,978.12
2019-01-12T01:09:05.117Z,978.15
2019-01-12T01:10:04.984Z,978.23
2019-01-12T01:11:05.134Z,978.18
2019-01-12T01:12:04.618Z,978.20
2019-01-12T01:13:04.757Z,978.18
2019-01-12T01:14:04.820Z,978.29
2019-01-12T01:15:05.157Z,978.20
2019-01-12T01:16:04.716Z,978.23
2019-01-12T01:17:04.751Z,978.37
2019-01-12T01:18:05.250Z,978.18
2019-01-12T01:19:05.657Z,978.29
2019-01-12T01:20:05.495Z,978.29
2019-01-12T01:21:05.439Z,978.23
2019-01-12T01:22:04.811Z,978.23
2019-01-12T01:23:04.831Z,978.18
2019-01-12T01:24:05.118Z,978.32
2019-01-12T01:25:04.699Z,978.29
2019-01-12T01:26:05.099Z,978.26
2019-01-12T01:27:05.154Z,978.18
2019-01-12T01:28:05.269Z,978.32
2019-01-12T01:29:10.299Z,978.29
2019-01-12T01:30:04.679Z,978.31
2019-01-12T01:31:04.837Z,978.37
2019-01-12T01:32:04.918Z,978.40
2019-01-12T01:33:05.026Z,978.31
2019-01-12T01:34:05.071Z,978.26
2019-01-12T01:35:04.796Z,978.34
2019-01-12T01:36:04.865Z,978.34
2019-01-12T01:37:04.872Z,978.20
2019-01-12T01:38:05.442Z,978.31
2019-01-12T01:39:05.426Z,978.34
2019-01-12T01:40:05.013Z,978.34
2019-01-12T01:41:04.638Z,978.23
2019-01-12T01:42:04.817Z,978.44
2019-01-12T01:43:05.374Z,978.44
2019-01-12T01:44:04.683Z,978.34
2019-01-12T01:45:05.225Z,978.37
2019-01-12T01:46:04.772Z,978.44
2019-01-12T01:47:05.043Z,978.29
2019-01-12T01:48:05.377Z,978.40
2019-01-12T01:49:10.588Z,978.40
2019-01-12T01:50:05.048Z,978.50
2019-01-12T01:51:05.029Z,978.34
2019-01-12T01:52:04.746Z,978.50
2019-01-12T01:53:05.033Z,978.31
2019-01-12T01:54:05.115Z,978.34
2019-01-12T01:55:04.751Z,978.31
2019-01-12T01:56:04.842Z,978.47
2019-01-12T01:57:04.815Z,978.28
2019-01-12T01:58:04.995Z,978.44
2019-01-12T01:59:04.614Z,978.28
2019-01-12T02:00:05.200Z,978.40
2019-01-12T02:01:04.718Z,978.53
2019-01-12T02:02:04.769Z,978.34
2019-01-12T02:03:05.358Z,978.40
2019-01-12T02:04:05.591Z,978.40
2019-01-12T02:05:04.582Z,978.37
2019-01-12T02:06:04.567Z,978.28
2019-01-12T02:07:04.562Z,978.34
2019-01-12T02:08:05.158Z,978.31
2019-01-12T02:09:05.376Z,978.37
2019-01-12T02:10:05.442Z,978.20
2019-01-12T02:11:05.453Z,978.37
2019-01-12T02:12:05.455Z,978.37
2019-01-12T02:13:04.580Z,978.28
2019-01-12T02:14:05.038Z,978.53
2019-01-12T02:15:05.002Z,978.31
2019-01-12T02:16:05.057Z,978.34
2019-01-12T02:17:05.322Z,978.23
2019-01-12T02:18:04.737Z,978.34
2019-01-12T02:19:04.788Z,978.23
2019-01-12T02:20:05.221Z,978.34
2019-01-12T02:21:05.481Z,978.40
2019-01-12T02:22:04.693Z,978.40
2019-01-12T02:23:04.686Z,978.34
2019-01-12T02:24:05.059Z,978.34
2019-01-12T02:25:05.379Z,978.26
2019-01-12T02:26:05.537Z,978.40
2019-01-12T02:27:04.952Z,978.34
2019-01-12T02:28:05.112Z,978.34
2019-01-12T02:29:09.613Z,978.34
2019-01-12T02:30:04.990Z,978.28
2019-01-12T02:31:05.439Z,978.31
2019-01-12T02:32:04.690Z,978.28
2019-01-12T02:33:04.717Z,978.50
2019-01-12T02:34:05.172Z,978.20
2019-01-12T02:35:05.325Z,978.25
2019-01-12T02:36:05.629Z,978.28
2019-01-12T02:37:04.760Z,978.37
2019-01-12T02:38:04.860Z,978.42
2019-01-12T02:39:04.716Z,978.34
2019-01-12T02:40:04.856Z,978.34
2019-01-12T02:41:05.005Z,978.37
2019-01-12T02:42:04.970Z,978.23
2019-01-12T02:43:05.247Z,978.14
2019-01-12T02:44:05.231Z,978.37
2019-01-12T02:45:05.411Z,978.28
2019-01-12T02:46:05.574Z,978.20
2019-01-12T02:47:04.683Z,978.25
2019-01-12T02:48:04.660Z,978.14
2019-01-12T02:49:05.107Z,978.20
2019-01-12T02:50:05.488Z,978.25
2019-01-12T02:51:05.130Z,978.34
2019-01-12T02:52:05.297Z,978.28
2019-01-12T02:53:04.596Z,978.34
2019-01-12T02:54:05.102Z,978.34
2019-01-12T02:55:10.496Z,978.34
2019-01-12T02:56:04.933Z,978.25
2019-01-12T02:57:05.014Z,978.39
2019-01-12T02:58:05.138Z,978.23
2019-01-12T02:59:05.172Z,978.11
2019-01-12T03:00:05.141Z,978.23
2019-01-12T03:01:05.310Z,978.34
2019-01-12T03:02:04.622Z,978.20
2019-01-12T03:03:04.831Z,978.37
2019-01-12T03:04:04.922Z,978.37
2019-01-12T03:05:04.571Z,978.42
2019-01-12T03:06:04.782Z,978.31
2019-01-12T03:07:05.313Z,978.17
2019-01-12T03:08:04.931Z,978.44
2019-01-12T03:09:05.108Z,978.34
2019-01-12T03:10:05.220Z,978.28
2019-01-12T03:11:04.635Z,978.31
2019-01-12T03:12:04.911Z,978.25
2019-01-12T03:13:05.255Z,978.25
2019-01-12T03:14:05.467Z,978.31
2019-01-12T03:15:07.177Z,978.14
2019-01-12T03:16:05.471Z,978.20
2019-01-12T03:17:04.923Z,978.28
2019-01-12T03:18:05.170Z,978.34
2019-01-12T03:19:05.125Z,978.25
2019-01-12T03:20:05.480Z,978.20
2019-01-12T03:21:04.657Z,978.28
2019-01-12T03:22:05.013Z,978.25
2019-01-12T03:23:04.639Z,978.25
2019-01-12T03:24:04.841Z,978.23
2019-01-12T03:25:04.760Z,978.25
2019-01-12T03:26:05.241Z,978.14
2019-01-12T03:27:05.318Z,978.22
2019-01-12T03:28:04.623Z,978.11
2019-01-12T03:29:09.859Z,978.14
2019-01-12T03:30:05.344Z,978.17
2019-01-12T03:31:04.731Z,978.25
2019-01-12T03:32:04.968Z,978.28
2019-01-12T03:33:05.456Z,978.20
2019-01-12T03:34:04.668Z,978.06
2019-01-12T03:35:05.047Z,978.28
2019-01-12T03:36:05.115Z,978.28
2019-01-12T03:37:05.521Z,978.11
2019-01-12T03:38:04.999Z,978.11
2019-01-12T03:39:04.904Z,978.14
2019-01-12T03:40:05.220Z,978.20
2019-01-12T03:41:05.383Z,978.09
2019-01-12T03:42:05.061Z,978.14
2019-01-12T03:43:04.841Z,978.11
2019-01-12T03:44:04.944Z,978.20
2019-01-12T03:45:04.490Z,978.20
2019-01-12T03:46:04.722Z,978.28
2019-01-12T03:47:05.266Z,978.11
2019-01-12T03:48:04.879Z,978.17
2019-01-12T03:49:04.976Z,978.11
2019-01-12T03:50:05.240Z,978.06
2019-01-12T03:51:04.723Z,978.11
2019-01-12T03:52:04.881Z,978.14
2019-01-12T03:53:04.911Z,978.00
2019-01-12T03:54:04.974Z,978.11
2019-01-12T03:55:04.950Z,978.14
2019-01-12T03:56:04.936Z,978.20
2019-01-12T03:57:05.255Z,978.17
2019-01-12T03:58:04.634Z,978.11
2019-01-12T03:59:04.830Z,978.06
2019-01-12T04:00:04.952Z,978.17
2019-01-12T04:01:05.037Z,978.14
2019-01-12T04:02:04.779Z,978.11
2019-01-12T04:03:10.197Z,978.17
2019-01-12T04:04:04.574Z,978.06
2019-01-12T04:05:04.716Z,978.25
2019-01-12T04:06:05.266Z,978.14
2019-01-12T04:07:05.398Z,978.25
2019-01-12T04:08:04.625Z,978.20
2019-01-12T04:09:04.797Z,978.11
2019-01-12T04:10:05.157Z,978.06
2019-01-12T04:11:05.545Z,978.14
2019-01-12T04:12:04.477Z,978.11
2019-01-12T04:13:04.890Z,978.17
2019-01-12T04:14:04.880Z,978.14
2019-01-12T04:15:05.290Z,978.14
2019-01-12T04:16:05.194Z,978.20
2019-01-12T04:17:05.296Z,978.09
2019-01-12T04:18:05.373Z,978.25
2019-01-12T04:19:05.549Z,978.06
2019-01-12T04:20:04.582Z,978.06
2019-01-12T04:21:05.282Z,978.20
2019-01-12T04:22:05.163Z,978.14
2019-01-12T04:23:05.436Z,978.11
2019-01-12T04:24:04.833Z,978.20
2019-01-12T04:25:05.276Z,978.17
2019-01-12T04:26:05.186Z,978.23
2019-01-12T04:27:05.494Z,978.09
2019-01-12T04:28:04.552Z,978.23
2019-01-12T04:29:09.765Z,978.28
2019-01-12T04:30:05.175Z,978.34
2019-01-12T04:31:05.372Z,978.12
2019-01-12T04:32:05.306Z,978.23
2019-01-12T04:33:04.580Z,978.17
2019-01-12T04:34:04.638Z,978.12
2019-01-12T04:35:04.722Z,978.26
2019-01-12T04:36:04.797Z,978.28
2019-01-12T04:37:05.478Z,978.20
2019-01-12T04:38:04.939Z,978.12
2019-01-12T04:39:05.291Z,978.17
2019-01-12T04:40:04.570Z,978.28
2019-01-12T04:41:04.538Z,978.17
2019-01-12T04:42:04.586Z,978.12
2019-01-12T04:43:05.127Z,978.17
2019-01-12T04:44:04.873Z,978.31
2019-01-12T04:45:05.035Z,978.09
2019-01-12T04:46:04.789Z,978.06
2019-01-12T04:47:05.269Z,978.06
2019-01-12T04:48:04.613Z,978.17
2019-01-12T04:49:10.042Z,978.06
2019-01-12T04:50:05.634Z,978.12
2019-01-12T04:51:04.964Z,977.95
2019-01-12T04:52:04.840Z,978.20
2019-01-12T04:53:04.763Z,978.17
2019-01-12T04:54:04.823Z,978.00
2019-01-12T04:55:05.409Z,978.09
2019-01-12T04:56:04.976Z,978.09
2019-01-12T04:57:05.115Z,978.03
2019-01-12T04:58:05.177Z,978.09
2019-01-12T04:59:05.293Z,978.12
2019-01-12T05:00:04.892Z,978.03
2019-01-12T05:01:05.364Z,978.20
2019-01-12T05:02:04.515Z,978.11
2019-01-12T05:03:04.689Z,978.11
2019-01-12T05:04:04.951Z,978.11
2019-01-12T05:05:05.300Z,978.00
2019-01-12T05:06:05.462Z,977.98
2019-01-12T05:07:04.754Z,978.09
2019-01-12T05:08:04.662Z,978.06
2019-01-12T05:09:05.117Z,978.11
2019-01-12T05:10:05.065Z,978.14
2019-01-12T05:11:04.549Z,978.17
2019-01-12T05:12:05.126Z,978.00
2019-01-12T05:13:05.199Z,977.97
2019-01-12T05:14:05.175Z,977.97
2019-01-12T05:15:04.818Z,977.89
2019-01-12T05:16:05.226Z,978.00
2019-01-12T05:17:05.431Z,977.97
2019-01-12T05:18:05.486Z,978.06
2019-01-12T05:19:05.019Z,978.06
2019-01-12T05:20:05.390Z,978.06
2019-01-12T05:21:04.858Z,978.08
2019-01-12T05:22:04.893Z,978.11
2019-01-12T05:23:05.261Z,978.17
2019-01-12T05:24:05.371Z,978.06
2019-01-12T05:25:05.995Z,978.17
2019-01-12T05:26:05.140Z,978.25
2019-01-12T05:27:05.249Z,978.08
2019-01-12T05:28:04.688Z,978.05
2019-01-12T05:29:10.041Z,978.11
2019-01-12T05:30:04.607Z,978.08
2019-01-12T05:31:04.639Z,978.03
2019-01-12T05:32:04.815Z,978.06
2019-01-12T05:33:05.182Z,978.19
2019-01-12T05:34:05.219Z,978.17
2019-01-12T05:35:05.436Z,977.97
2019-01-12T05:36:04.880Z,978.08
2019-01-12T05:37:04.934Z,978.00
2019-01-12T05:38:05.139Z,978.06
2019-01-12T05:39:05.431Z,977.97
2019-01-12T05:40:05.069Z,978.20
2019-01-12T05:41:05.081Z,978.08
2019-01-12T05:42:05.261Z,978.11
2019-01-12T05:43:05.303Z,978.20
2019-01-12T05:44:05.366Z,978.14
2019-01-12T05:45:04.646Z,978.28
2019-01-12T05:46:05.016Z,978.28
2019-01-12T05:47:05.423Z,978.20
2019-01-12T05:48:04.856Z,978.17
2019-01-12T05:49:04.906Z,978.28
2019-01-12T05:50:05.028Z,978.14
2019-01-12T05:51:05.170Z,978.39
2019-01-12T05:52:05.438Z,978.31
2019-01-12T05:53:05.518Z,978.11
2019-01-12T05:54:04.688Z,978.17
2019-01-12T05:55:04.984Z,978.28
2019-01-12T05:56:04.880Z,978.22
2019-01-12T05:57:05.025Z,978.17
2019-01-12T05:58:05.035Z,978.05
2019-01-12T05:59:05.504Z,978.14
2019-01-12T06:00:05.102Z,978.14
2019-01-12T06:01:05.417Z,978.05
2019-01-12T06:02:04.851Z,978.25
2019-01-12T06:03:04.968Z,978.28
2019-01-12T06:04:05.352Z,978.08
2019-01-12T06:05:05.422Z,978.25
2019-01-12T06:06:04.996Z,978.08
2019-01-12T06:07:05.260Z,978.19
2019-01-12T06:08:04.989Z,978.28
2019-01-12T06:09:05.021Z,978.16
2019-01-12T06:10:05.197Z,978.36
2019-01-12T06:11:04.675Z,978.11
2019-01-12T06:12:04.685Z,978.25
2019-01-12T06:13:04.928Z,978.33
2019-01-12T06:14:05.447Z,978.22
2019-01-12T06:15:05.020Z,978.13
2019-01-12T06:16:04.994Z,978.25
2019-01-12T06:17:04.663Z,978.13
2019-01-12T06:18:05.077Z,978.30
2019-01-12T06:19:05.531Z,978.08
2019-01-12T06:20:05.061Z,978.16
2019-01-12T06:21:05.048Z,978.30
2019-01-12T06:22:05.105Z,978.25
2019-01-12T06:23:05.167Z,978.24
2019-01-12T06:24:05.535Z,978.30
2019-01-12T06:25:05.466Z,978.27
2019-01-12T06:26:04.759Z,978.19
2019-01-12T06:27:05.276Z,978.24
2019-01-12T06:28:05.612Z,978.19
2019-01-12T06:29:10.042Z,978.16
2019-01-12T06:30:05.489Z,978.19
2019-01-12T06:31:04.640Z,978.24
2019-01-12T06:32:04.998Z,978.19
2019-01-12T06:33:05.372Z,978.27
2019-01-12T06:34:05.462Z,978.19
2019-01-12T06:35:04.655Z,978.24
2019-01-12T06:36:04.944Z,978.36
2019-01-12T06:37:05.335Z,978.16
2019-01-12T06:38:04.847Z,978.16
2019-01-12T06:39:04.768Z,978.22
2019-01-12T06:40:05.391Z,978.16
2019-01-12T06:41:05.352Z,978.27
2019-01-12T06:42:05.569Z,978.27
2019-01-12T06:43:05.428Z,978.13
2019-01-12T06:44:05.460Z,978.22
2019-01-12T06:45:05.021Z,978.36
2019-01-12T06:46:05.141Z,978.22
2019-01-12T06:47:04.633Z,978.24
2019-01-12T06:48:04.680Z,978.27
2019-01-12T06:49:04.660Z,978.13
2019-01-12T06:50:04.931Z,978.24
2019-01-12T06:51:05.237Z,978.22
2019-01-12T06:52:05.554Z,978.24
2019-01-12T06:53:04.534Z,978.25
2019-01-12T06:54:09.782Z,978.16
2019-01-12T06:55:05.200Z,978.16
2019-01-12T06:56:11.265Z,978.19
2019-01-12T06:57:05.047Z,978.22
2019-01-12T06:58:05.109Z,978.13
2019-01-12T06:59:05.218Z,978.25
2019-01-12T07:00:05.388Z,978.11
2019-01-12T07:01:05.407Z,978.25
2019-01-12T07:02:05.289Z,978.19
2019-01-12T07:03:04.703Z,978.19
2019-01-12T07:04:05.241Z,978.16
2019-01-12T07:05:05.347Z,978.30
2019-01-12T07:06:05.367Z,978.28
2019-01-12T07:07:04.927Z,978.16
2019-01-12T07:08:04.940Z,978.33
2019-01-12T07:09:04.524Z,978.16
2019-01-12T07:10:04.816Z,978.22
2019-01-12T07:11:05.100Z,978.16
2019-01-12T07:12:05.020Z,978.16
2019-01-12T07:13:05.197Z,978.28
2019-01-12T07:14:05.345Z,978.14
2019-01-12T07:15:05.493Z,978.30
2019-01-12T07:16:04.575Z,978.44
2019-01-12T07:17:04.853Z,978.46
2019-01-12T07:18:09.340Z,978.19
2019-01-12T07:19:05.028Z,978.22
2019-01-12T07:20:05.150Z,978.22
2019-01-12T07:21:05.039Z,978.28
2019-01-12T07:22:04.625Z,978.19
2019-01-12T07:23:05.216Z,978.39
2019-01-12T07:24:05.374Z,978.16
2019-01-12T07:25:05.379Z,978.28
2019-01-12T07:26:05.368Z,978.28
2019-01-12T07:27:05.370Z,978.19
2019-01-12T07:28:05.033Z,978.36
2019-01-12T07:29:10.435Z,978.19
2019-01-12T07:30:04.965Z,978.16
2019-01-12T07:31:05.097Z,978.28
2019-01-12T07:32:05.538Z,978.14
2019-01-12T07:33:04.676Z,978.28
2019-01-12T07:34:04.997Z,978.16
2019-01-12T07:35:05.308Z,978.33
2019-01-12T07:36:04.761Z,978.30
2019-01-12T07:37:04.866Z,978.33
2019-01-12T07:38:04.948Z,978.28
2019-01-12T07:39:05.318Z,978.22
2019-01-12T07:40:05.284Z,978.33
2019-01-12T07:41:05.584Z,978.33
2019-01-12T07:42:04.747Z,978.30
2019-01-12T07:43:05.180Z,978.22
2019-01-12T07:44:04.809Z,978.33
2019-01-12T07:45:05.142Z,978.25
2019-01-12T07:46:05.249Z,978.19
2019-01-12T07:47:05.259Z,978.30
2019-01-12T07:48:04.883Z,978.33
2019-01-12T07:49:05.275Z,978.16
2019-01-12T07:50:04.923Z,978.30
2019-01-12T07:51:04.718Z,978.39
2019-01-12T07:52:04.823Z,978.39
2019-01-12T07:53:05.190Z,978.13
2019-01-12T07:54:05.306Z,978.27
2019-01-12T07:55:05.312Z,978.39
2019-01-12T07:56:05.597Z,978.30
2019-01-12T07:57:04.998Z,978.39
2019-01-12T07:58:05.426Z,978.19
2019-01-12T07:59:04.791Z,978.30
2019-01-12T08:00:05.104Z,978.33
2019-01-12T08:01:04.651Z,978.25
2019-01-12T08:02:09.790Z,978.33
2019-01-12T08:03:04.876Z,978.27
2019-01-12T08:04:05.469Z,978.22
2019-01-12T08:05:04.548Z,978.33
2019-01-12T08:06:04.666Z,978.19
2019-01-12T08:07:05.299Z,978.22
2019-01-12T08:08:05.363Z,978.27
2019-01-12T08:09:05.388Z,978.16
2019-01-12T08:10:04.547Z,978.08
2019-01-12T08:11:04.746Z,978.19
2019-01-12T08:12:05.107Z,978.16
2019-01-12T08:13:05.214Z,978.21
2019-01-12T08:14:05.259Z,978.13
2019-01-12T08:15:05.357Z,978.24
2019-01-12T08:16:05.373Z,978.21
2019-01-12T08:17:05.433Z,978.16
2019-01-12T08:18:04.659Z,978.13
2019-01-12T08:19:04.961Z,978.15
2019-01-12T08:20:05.101Z,978.21
2019-01-12T08:21:05.007Z,978.10
2019-01-12T08:22:05.047Z,978.21
2019-01-12T08:23:05.496Z,978.07
2019-01-12T08:24:04.844Z,978.18
2019-01-12T08:25:05.339Z,978.18
2019-01-12T08:26:05.210Z,978.06
2019-01-12T08:27:05.562Z,978.12
2019-01-12T08:28:04.976Z,978.06
2019-01-12T08:29:10.105Z,978.17
2019-01-12T08:30:04.532Z,978.03
2019-01-12T08:31:05.068Z,978.15
2019-01-12T08:32:05.513Z,978.23
2019-01-12T08:33:05.066Z,978.17
2019-01-12T08:34:05.546Z,978.23
2019-01-12T08:35:04.604Z,978.06
2019-01-12T08:36:04.742Z,978.11
2019-01-12T08:37:04.913Z,978.08
2019-01-12T08:38:05.043Z,978.20
2019-01-12T08:39:05.310Z,978.22
2019-01-12T08:40:04.800Z,978.03
2019-01-12T08:41:05.440Z,978.17
2019-01-12T08:42:04.944Z,978.11
2019-01-12T08:43:05.055Z,978.16
2019-01-12T08:44:05.205Z,978.13
2019-01-12T08:45:05.347Z,978.08
2019-01-12T08:46:04.595Z,978.10
2019-01-12T08:47:04.745Z,977.96
2019-01-12T08:48:04.719Z,978.13
2019-01-12T08:49:10.449Z,978.16
2019-01-12T08:50:04.958Z,978.02
2019-01-12T08:51:04.617Z,978.10
2019-01-12T08:52:04.990Z,978.10
2019-01-12T08:53:05.102Z,978.10
2019-01-12T08:54:05.190Z,977.90
2019-01-12T08:55:04.608Z,978.04
2019-01-12T08:56:05.083Z,978.09
2019-01-12T08:57:05.191Z,978.15
2019-01-12T08:58:05.081Z,978.04
2019-01-12T08:59:04.999Z,977.92
2019-01-12T09:00:04.614Z,977.87
2019-01-12T09:01:05.595Z,977.95
2019-01-12T09:02:04.941Z,977.84
2019-01-12T09:03:04.799Z,977.98
2019-01-12T09:04:05.083Z,978.00
2019-01-12T09:05:05.398Z,977.86
2019-01-12T09:06:04.906Z,977.89
2019-01-12T09:07:05.281Z,977.97
2019-01-12T09:08:05.290Z,977.89
2019-01-12T09:09:06.045Z,977.80
2019-01-12T09:10:06.023Z,977.83
2019-01-12T09:11:04.727Z,977.86
2019-01-12T09:12:05.260Z,978.00
2019-01-12T09:13:04.553Z,977.86
2019-01-12T09:14:05.099Z,977.91
2019-01-12T09:15:04.893Z,977.86
2019-01-12T09:16:04.824Z,977.83
2019-01-12T09:17:05.016Z,977.86
2019-01-12T09:18:05.472Z,977.77
2019-01-12T09:19:05.568Z,977.77
2019-01-12T09:20:04.963Z,977.77
2019-01-12T09:21:05.107Z,977.80
2019-01-12T09:22:05.401Z,977.69
2019-01-12T09:23:04.822Z,977.82
2019-01-12T09:24:04.894Z,977.68
2019-01-12T09:25:05.115Z,977.71
2019-01-12T09:26:05.414Z,977.77
2019-01-12T09:27:05.471Z,977.79
2019-01-12T09:28:04.861Z,977.82
2019-01-12T09:29:05.050Z,977.79
2019-01-12T09:30:05.077Z,977.74
2019-01-12T09:31:05.088Z,977.76
2019-01-12T09:32:05.360Z,977.82
2019-01-12T09:33:04.918Z,977.88
2019-01-12T09:34:05.212Z,977.85
2019-01-12T09:35:05.368Z,977.79
2019-01-12T09:36:04.559Z,977.76
2019-01-12T09:37:04.709Z,977.82
2019-01-12T09:38:04.835Z,977.73
2019-01-12T09:39:04.869Z,977.70
2019-01-12T09:40:05.499Z,977.68
2019-01-12T09:41:05.474Z,977.70
2019-01-12T09:42:04.702Z,977.65
2019-01-12T09:43:04.586Z,977.60
2019-01-12T09:44:05.113Z,977.67
2019-01-12T09:45:05.397Z,977.70
2019-01-12T09:46:04.719Z,977.76
2019-01-12T09:47:05.018Z,977.59
2019-01-12T09:48:04.990Z,977.57
2019-01-12T09:49:04.707Z,977.62
2019-01-12T09:50:05.206Z,977.62
2019-01-12T09:51:05.500Z,977.56
2019-01-12T09:52:04.630Z,977.54
2019-01-12T09:53:04.638Z,977.62
2019-01-12T09:54:05.219Z,977.62
2019-01-12T09:55:05.295Z,977.53
2019-01-12T09:56:05.362Z,977.53
2019-01-12T09:57:05.577Z,977.50
2019-01-12T09:58:04.518Z,977.59
2019-01-12T09:59:05.210Z,977.72
2019-01-12T10:00:04.738Z,977.58
2019-01-12T10:01:05.484Z,977.39
2019-01-12T10:02:05.308Z,977.44
2019-01-12T10:03:04.934Z,977.30
2019-01-12T10:04:05.060Z,977.24
2019-01-12T10:05:05.196Z,977.50
2019-01-12T10:06:05.195Z,977.33
2019-01-12T10:07:04.535Z,977.27
2019-01-12T10:08:05.187Z,977.24
2019-01-12T10:09:04.707Z,977.24
2019-01-12T10:10:04.846Z,977.32
2019-01-12T10:11:04.846Z,977.32
2019-01-12T10:12:05.306Z,977.21
2019-01-12T10:13:05.378Z,977.29
2019-01-12T10:14:05.507Z,977.10
2019-01-12T10:15:04.956Z,977.21
2019-01-12T10:16:05.166Z,977.21
2019-01-12T10:17:04.826Z,977.21
2019-01-12T10:18:05.093Z,977.04
2019-01-12T10:19:04.628Z,977.06
2019-01-12T10:20:04.756Z,977.01
2019-01-12T10:21:05.406Z,977.23
2019-01-12T10:22:04.701Z,977.09
2019-01-12T10:23:05.241Z,977.20
2019-01-12T10:24:05.413Z,977.06
2019-01-12T10:25:04.951Z,977.12
2019-01-12T10:26:05.191Z,977.03
2019-01-12T10:27:05.142Z,977.06
2019-01-12T10:28:05.397Z,977.03
2019-01-12T10:29:09.613Z,976.89
2019-01-12T10:30:05.108Z,977.12
2019-01-12T10:31:04.631Z,977.06
2019-01-12T10:32:04.599Z,977.06
2019-01-12T10:33:04.814Z,977.03
2019-01-12T10:34:04.951Z,977.06
2019-01-12T10:35:05.143Z,977.03
2019-01-12T10:36:04.609Z,977.03
2019-01-12T10:37:04.788Z,976.97
2019-01-12T10:38:05.023Z,977.06
2019-01-12T10:39:05.506Z,977.00
2019-01-12T10:40:04.528Z,976.89
2019-01-12T10:41:04.741Z,976.95
2019-01-12T10:42:05.192Z,976.89
2019-01-12T10:43:05.489Z,976.89
2019-01-12T10:44:05.550Z,976.84
2019-01-12T10:45:05.095Z,976.81
2019-01-12T10:46:04.917Z,976.75
2019-01-12T10:47:05.057Z,976.78
2019-01-12T10:48:05.178Z,976.89
2019-01-12T10:49:10.499Z,976.73
2019-01-12T10:50:04.978Z,976.71
2019-01-12T10:51:05.060Z,976.68
2019-01-12T10:52:05.316Z,976.62
2019-01-12T10:53:04.881Z,976.65
2019-01-12T10:54:05.178Z,976.78
2019-01-12T10:55:05.270Z,976.73
2019-01-12T10:56:04.716Z,976.83
2019-01-12T10:57:06.048Z,976.86
2019-01-12T10:58:05.089Z,976.70
2019-01-12T10:59:05.153Z,976.70
2019-01-12T11:00:04.611Z,976.86
2019-01-12T11:01:05.060Z,976.70
2019-01-12T11:02:05.440Z,976.73
2019-01-12T11:03:05.422Z,976.73
2019-01-12T11:04:04.717Z,976.75
2019-01-12T11:05:04.772Z,976.62
2019-01-12T11:06:05.291Z,976.59
2019-01-12T11:07:04.852Z,976.62
2019-01-12T11:08:04.810Z,976.48
2019-01-12T11:09:05.231Z,976.56
2019-01-12T11:10:05.476Z,976.62
2019-01-12T11:11:05.174Z,976.68
2019-01-12T11:12:04.749Z,976.68
2019-01-12T11:13:05.056Z,976.62
2019-01-12T11:14:04.953Z,976.59
2019-01-12T11:15:05.144Z,976.68
2019-01-12T11:16:05.283Z,976.62
2019-01-12T11:17:04.733Z,976.48
2019-01-12T11:18:04.834Z,976.62
2019-01-12T11:19:05.484Z,976.54
2019-01-12T11:20:05.569Z,976.54
2019-01-12T11:21:04.795Z,976.43
2019-01-12T11:22:05.381Z,976.40
2019-01-12T11:23:04.689Z,976.34
2019-01-12T11:24:05.213Z,976.48
2019-01-12T11:25:05.406Z,976.29
2019-01-12T11:26:05.445Z,976.18
2019-01-12T11:27:04.748Z,976.20
2019-01-12T11:28:04.782Z,976.23
2019-01-12T11:29:04.938Z,976.23
2019-01-12T11:30:05.142Z,976.31
2019-01-12T11:31:05.238Z,975.98
2019-01-12T11:32:05.436Z,976.15
2019-01-12T11:33:05.441Z,976.12
2019-01-12T11:34:05.471Z,976.20
2019-01-12T11:35:04.657Z,976.06
2019-01-12T11:36:05.381Z,976.20
2019-01-12T11:37:05.420Z,976.03
2019-01-12T11:38:05.479Z,976.03
2019-01-12T11:39:04.694Z,976.03
2019-01-12T11:40:05.044Z,976.00
2019-01-12T11:41:05.192Z,975.89
2019-01-12T11:42:05.403Z,976.03
2019-01-12T11:43:05.130Z,975.98
2019-01-12T11:44:10.503Z,975.95
2019-01-12T11:45:05.077Z,975.92
2019-01-12T11:46:05.116Z,975.98
2019-01-12T11:47:05.293Z,975.92
2019-01-12T11:48:05.242Z,975.89
2019-01-12T11:49:04.898Z,975.92
2019-01-12T11:50:05.026Z,975.81
2019-01-12T11:51:05.121Z,975.75
2019-01-12T11:52:04.817Z,975.64
2019-01-12T11:53:05.034Z,975.73
2019-01-12T11:54:05.428Z,975.78
2019-01-12T11:55:05.038Z,975.78
2019-01-12T11:56:04.750Z,975.76
2019-01-12T11:57:05.135Z,975.73
2019-01-12T11:58:05.578Z,975.67
2019-01-12T11:59:05.039Z,975.48
2019-01-12T12:00:05.281Z,975.73
2019-01-12T12:01:05.395Z,975.59
2019-01-12T12:02:05.538Z,975.73
2019-01-12T12:03:04.683Z,975.64
2019-01-12T12:04:06.951Z,975.59
2019-01-12T12:05:04.904Z,975.48
2019-01-12T12:06:05.064Z,975.67
2019-01-12T12:07:05.135Z,975.50
2019-01-12T12:08:05.154Z,975.56
2019-01-12T12:09:05.175Z,975.64
2019-01-12T12:10:04.618Z,975.53
2019-01-12T12:11:04.878Z,975.48
2019-01-12T12:12:05.300Z,975.42
2019-01-12T12:13:05.258Z,975.51
2019-01-12T12:14:05.278Z,975.42
2019-01-12T12:15:05.415Z,975.42
2019-01-12T12:16:04.519Z,975.34
2019-01-12T12:17:04.675Z,975.51
2019-01-12T12:18:05.496Z,975.48
2019-01-12T12:19:05.480Z,975.48
2019-01-12T12:20:05.045Z,975.48
2019-01-12T12:21:05.547Z,975.40
2019-01-12T12:22:05.469Z,975.42
2019-01-12T12:23:04.603Z,975.32
2019-01-12T12:24:05.188Z,975.37
2019-01-12T12:25:04.566Z,975.42
2019-01-12T12:26:04.843Z,975.21
2019-01-12T12:27:05.519Z,975.48
2019-01-12T12:28:04.808Z,975.32